Time;durP1;ratioP1;P1;durP2;ratioP2;P2;SDS_P1;SDS_P2;PMS_P1;PMS_P2;Temp;Humidity;BMP_temperature;BMP_pressure;BME280_temperature;BME280_humidity;BME280_pressure;Samples;Min_cycle;Max_cycle;Signal;HPM_P1;HPM_P2
2022/12/19 05:15:39;;;;;;;135.23;37.55;;;;;;;-3.68;100.00;102620.34;5560072;32;203716;-87
2022/12/19 05:18:42;;;;;;;163.02;38.25;;;;;;;-3.70;100.00;102624.59;5545871;32;34255;-87
2022/12/19 05:21:45;;;;;;;130.82;36.33;;;;;;;-3.66;100.00;102633.41;5545989;32;33668;-87
2022/12/19 05:24:48;;;;;;;146.65;37.60;;;;;;;-3.61;100.00;102629.31;5545903;32;34634;-87
2022/12/19 05:27:50;;;;;;;137.35;38.15;;;;;;;-3.55;100.00;102627.00;5544935;32;33957;-86
2022/12/19 05:31:07;;;;;;;115.03;35.03;;;;;;;-3.51;100.00;102630.63;5545196;32;34318;-87
2022/12/19 05:34:10;;;;;;;117.15;35.80;;;;;;;-3.39;100.00;102625.97;5544960;32;33698;-87
2022/12/19 05:37:12;;;;;;;109.03;35.30;;;;;;;-3.29;100.00;102603.91;5547200;32;34318;-87
2022/12/19 05:40:15;;;;;;;119.37;36.20;;;;;;;-3.30;100.00;102607.31;5549017;32;34350;-87
2022/12/19 05:43:18;;;;;;;117.55;34.55;;;;;;;-3.26;100.00;102609.22;5545900;32;32164;-87
2022/12/19 05:46:22;;;;;;;111.70;35.40;;;;;;;-3.32;100.00;102619.31;5554438;32;34216;-87
2022/12/19 05:49:24;;;;;;;110.72;34.67;;;;;;;-3.26;100.00;102624.78;5546283;32;34181;-87
2022/12/19 05:52:28;;;;;;;117.05;34.97;;;;;;;-3.19;100.00;102612.97;5544468;32;34635;-87
2022/12/19 05:55:31;;;;;;;114.75;34.58;;;;;;;-3.17;100.00;102611.31;5545969;32;34157;-87
2022/12/19 05:58:34;;;;;;;109.90;34.85;;;;;;;-3.23;100.00;102616.25;5544843;32;33405;-87
2022/12/19 06:01:38;;;;;;;104.38;34.53;;;;;;;-3.16;100.00;102607.91;5545189;32;34375;-87
2022/12/19 06:04:41;;;;;;;112.75;36.28;;;;;;;-3.08;100.00;102607.38;5546895;32;34654;-87
2022/12/19 06:07:43;;;;;;;115.93;36.90;;;;;;;-2.98;100.00;102609.50;5549530;32;34027;-87
2022/12/19 06:10:47;;;;;;;102.60;33.75;;;;;;;-2.93;100.00;102614.94;5547995;32;34043;-87
2022/12/19 06:13:49;;;;;;;106.07;33.90;;;;;;;-2.98;100.00;102614.69;5545496;32;34179;-87
2022/12/19 06:16:52;;;;;;;113.55;35.97;;;;;;;-2.92;100.00;102632.28;5545371;32;34062;-87
2022/12/19 06:19:55;;;;;;;103.80;36.13;;;;;;;-2.96;100.00;102627.75;5545459;32;33667;-87
2022/12/19 06:22:58;;;;;;;108.53;35.13;;;;;;;-2.93;100.00;102625.31;5543712;32;32627;-87
2022/12/19 06:26:02;;;;;;;104.20;34.60;;;;;;;-2.88;100.00;102628.97;5534391;32;33712;-87
2022/12/19 06:29:06;;;;;;;113.25;35.60;;;;;;;-2.89;100.00;102632.41;5536953;32;33771;-87
2022/12/19 06:32:13;;;;;;;101.55;35.30;;;;;;;-2.85;100.00;102627.38;5532846;32;34749;-87
2022/12/19 06:35:16;;;;;;;103.35;35.15;;;;;;;-2.76;100.00;102621.69;5525816;32;32382;-87
2022/12/19 06:38:21;;;;;;;104.50;37.08;;;;;;;-2.80;100.00;102635.41;5524882;32;34084;-87
2022/12/19 06:44:47;;;;;;;100.40;34.83;;;;;;;-2.65;100.00;102631.66;5526441;32;34282;-87
2022/12/19 06:47:50;;;;;;;104.12;35.63;;;;;;;-2.59;100.00;102631.91;5516441;32;33764;-87
2022/12/19 06:50:52;;;;;;;94.95;35.40;;;;;;;-2.44;100.00;102642.94;5514417;32;34412;-87
2022/12/19 06:53:56;;;;;;;101.70;36.85;;;;;;;-2.54;100.00;102640.78;5522995;32;33688;-87
2022/12/19 06:56:58;;;;;;;95.90;35.78;;;;;;;-2.58;100.00;102636.28;5525364;32;32670;-87
2022/12/19 07:00:01;;;;;;;98.78;36.10;;;;;;;-2.61;100.00;102636.16;5518354;32;34856;-86
2022/12/19 07:03:07;;;;;;;110.70;36.53;;;;;;;-2.48;100.00;102637.53;5543783;32;33612;-87
2022/12/19 07:06:10;;;;;;;97.75;35.10;;;;;;;-2.45;100.00;102633.34;5534042;32;34893;-87
2022/12/19 07:09:13;;;;;;;93.82;34.03;;;;;;;-2.44;100.00;102645.56;5513354;32;33805;-88
2022/12/19 07:12:16;;;;;;;93.35;33.25;;;;;;;-2.48;100.00;102648.84;5532295;32;34695;-88
2022/12/19 07:15:18;;;;;;;96.37;32.30;;;;;;;-2.41;100.00;102650.00;5534388;32;34499;-87
2022/12/19 07:18:21;;;;;;;89.05;32.60;;;;;;;-2.37;100.00;102649.25;5533428;32;34283;-88
2022/12/19 07:21:24;;;;;;;89.30;31.98;;;;;;;-2.31;100.00;102653.84;5531389;32;32647;-87
2022/12/19 07:24:28;;;;;;;91.47;33.28;;;;;;;-2.37;100.00;102656.19;5525033;32;33777;-88
2022/12/19 07:27:31;;;;;;;96.45;32.47;;;;;;;-2.35;100.00;102647.63;5529200;32;33120;-89
2022/12/19 07:30:38;;;;;;;92.37;32.55;;;;;;;-2.40;100.00;102646.56;5531924;32;34253;-92
2022/12/19 07:33:59;;;;;;;79.22;28.25;;;;;;;-2.42;100.00;102649.91;5553992;26;35091;31
2022/12/19 07:37:02;;;;;;;79.10;29.20;;;;;;;-2.36;100.00;102652.75;5553921;32;33365;-87
2022/12/19 07:40:05;;;;;;;68.82;26.60;;;;;;;-2.42;100.00;102653.37;5536856;32;32437;-88
2022/12/19 07:43:08;;;;;;;63.63;24.95;;;;;;;-2.44;100.00;102655.94;5562202;32;33654;-88
2022/12/19 07:46:11;;;;;;;61.83;24.17;;;;;;;-2.47;100.00;102647.13;5574698;32;34027;-88
2022/12/19 07:49:14;;;;;;;64.28;24.08;;;;;;;-2.54;100.00;102642.47;5557684;32;33701;-88
2022/12/19 07:52:24;;;;;;;60.92;23.80;;;;;;;-2.46;100.00;102636.78;5558274;32;34128;-87
2022/12/19 07:55:27;;;;;;;62.17;23.73;;;;;;;-2.36;100.00;102648.44;5542903;32;33423;-89
2022/12/19 07:58:30;;;;;;;63.17;24.27;;;;;;;-2.42;100.00;102650.78;5561666;31;34756;-89
2022/12/19 08:01:33;;;;;;;62.15;24.20;;;;;;;-2.44;100.00;102673.25;5556743;32;34525;-88
2022/12/19 08:04:36;;;;;;;58.85;23.12;;;;;;;-2.33;100.00;102668.47;5545903;32;32757;-88
2022/12/19 08:18:54;;;;;;;52.30;18.83;;;;;;;-2.11;100.00;102683.22;4095829;29;20089;-91
2022/12/19 08:22:05;;;;;;;44.80;19.00;;;;;;;-1.68;100.00;102689.25;5618144;26;33843;-89
2022/12/19 08:25:09;;;;;;;48.28;18.90;;;;;;;-1.76;100.00;102690.69;5582689;31;34900;-89
2022/12/19 08:28:12;;;;;;;44.10;18.17;;;;;;;-1.75;100.00;102679.44;5598904;26;34267;-88
2022/12/19 08:31:16;;;;;;;48.33;19.42;;;;;;;-1.46;100.00;102678.75;5603647;31;34613;-89
2022/12/19 08:34:19;;;;;;;47.55;18.42;;;;;;;-1.61;100.00;102692.97;5608490;31;34559;-88
2022/12/19 08:37:22;;;;;;;50.72;20.20;;;;;;;-1.37;100.00;102682.59;5594686;31;34003;-88
2022/12/19 08:40:25;;;;;;;47.22;18.77;;;;;;;-1.31;100.00;102666.28;5597384;31;32363;-89
2022/12/19 08:43:29;;;;;;;49.05;19.02;;;;;;;-1.49;100.00;102666.50;5604832;26;32714;-88
2022/12/19 08:46:34;;;;;;;48.15;19.45;;;;;;;-1.63;100.00;102669.50;5605096;26;33729;-88
2022/12/19 08:49:37;;;;;;;45.30;20.10;;;;;;;-1.58;100.00;102658.34;5587804;31;33570;-88
2022/12/19 08:52:40;;;;;;;46.75;19.42;;;;;;;-1.66;100.00;102668.50;5573043;31;32787;-87
2022/12/19 08:55:42;;;;;;;44.58;18.20;;;;;;;-1.61;100.00;102664.31;5591553;31;34103;-88
2022/12/19 08:58:46;;;;;;;49.85;20.10;;;;;;;-1.50;100.00;102650.00;5585451;31;33593;-87
2022/12/19 09:01:48;;;;;;;45.40;18.98;;;;;;;-1.59;100.00;102647.06;5578490;31;33604;-87
2022/12/19 09:04:53;;;;;;;40.88;17.55;;;;;;;-1.39;100.00;102667.75;5603297;31;35343;-87
2022/12/19 09:08:16;;;;;;;43.58;17.42;;;;;;;-1.41;100.00;102672.88;5601079;31;33664;-89
2022/12/19 09:11:19;;;;;;;42.95;18.67;;;;;;;-1.72;100.00;102653.50;5606760;31;33815;-89
2022/12/19 09:14:22;;;;;;;42.25;17.40;;;;;;;-1.87;100.00;102653.81;5580190;31;34583;-87
2022/12/19 09:17:25;;;;;;;43.20;18.37;;;;;;;-1.87;100.00;102647.75;5591091;31;33598;-87
2022/12/19 09:20:27;;;;;;;42.95;17.65;;;;;;;-1.69;100.00;102651.03;5596084;31;33730;-88
2022/12/19 09:23:32;;;;;;;38.92;17.25;;;;;;;-1.54;100.00;102655.94;5599740;31;34773;-88
2022/12/19 09:26:38;;;;;;;38.50;16.30;;;;;;;-1.49;100.00;102662.19;5589720;26;33958;-88
2022/12/19 09:29:42;;;;;;;43.85;18.67;;;;;;;-1.34;100.00;102665.31;5560019;32;34309;-88
2022/12/19 09:32:44;;;;;;;44.53;17.77;;;;;;;-0.88;100.00;102674.78;5557657;32;34039;-88
2022/12/19 09:35:50;;;;;;;36.95;15.75;;;;;;;0.23;100.00;102678.31;5541856;32;33294;-88
2022/12/19 09:38:55;;;;;;;36.80;17.70;;;;;;;2.51;100.00;102664.06;5565111;32;33789;-88
2022/12/19 09:42:05;;;;;;;42.62;18.52;;;;;;;4.02;100.00;102646.53;5556034;32;33857;-88
2022/12/19 09:45:26;;;;;;;45.33;18.95;;;;;;;4.25;100.00;102630.22;5576074;32;34021;-91
2022/12/19 09:48:34;;;;;;;44.15;19.35;;;;;;;5.68;70.42;102622.84;5566392;32;35276;-88
2022/12/19 09:51:55;;;;;;;42.53;19.17;;;;;;;4.66;73.72;102628.97;5555111;32;34581;-88
2022/12/19 09:55:10;;;;;;;41.00;19.05;;;;;;;4.78;74.77;102624.69;5557629;32;33915;-89
2022/12/19 09:58:36;;;;;;;42.90;18.52;;;;;;;6.51;67.06;102618.03;5538962;32;32739;-88
2022/12/19 10:02:18;;;;;;;37.80;17.65;;;;;;;7.66;61.70;102620.78;5548567;32;33002;-88
2022/12/19 10:06:01;;;;;;;40.55;18.42;;;;;;;4.61;71.23;102613.97;5482759;32;33040;-88
2022/12/19 10:09:32;;;;;;;40.58;18.87;;;;;;;4.17;75.97;102603.84;5554003;32;35388;-88
2022/12/19 10:13:14;;;;;;;40.12;18.17;;;;;;;4.11;76.07;102600.25;5555846;32;34478;-87
2022/12/19 10:16:51;;;;;;;48.65;19.73;;;;;;;2.87;81.18;102601.84;5552611;32;34080;-87
2022/12/19 10:20:22;;;;;;;44.28;19.35;;;;;;;1.40;90.08;102600.50;5557903;32;33806;-87
2022/12/19 10:23:49;;;;;;;43.60;18.48;;;;;;;1.01;97.27;102608.22;5559133;32;33440;-87
2022/12/19 10:26:58;;;;;;;43.83;18.10;;;;;;;0.79;97.04;102606.78;5550447;32;34407;-90
2022/12/19 10:30:14;;;;;;;41.90;18.17;;;;;;;0.31;98.90;102606.34;5554094;32;34588;-92
2022/12/19 10:33:28;;;;;;;42.90;18.35;;;;;;;0.28;100.00;102605.34;5558349;32;32428;-88
2022/12/19 10:36:37;;;;;;;38.58;16.40;;;;;;;0.52;100.00;102603.44;5544633;32;32964;-87
2022/12/19 10:40:19;;;;;;;40.88;17.27;;;;;;;0.61;99.73;102584.53;5557595;32;34393;-87
2022/12/19 10:43:44;;;;;;;42.17;17.37;;;;;;;0.60;98.84;102585.38;5525837;32;33775;-87
2022/12/19 10:46:49;;;;;;;41.25;17.85;;;;;;;0.16;100.00;102585.91;5561620;32;34427;-87
2022/12/19 10:49:52;;;;;;;40.58;17.08;;;;;;;0.02;100.00;102571.53;5560769;32;35114;-87
2022/12/19 10:53:03;;;;;;;37.30;16.73;;;;;;;0.45;100.00;102578.00;5558617;32;34153;-84
2022/12/19 10:56:22;;;;;;;37.58;16.98;;;;;;;0.95;99.09;102563.62;5557480;32;33668;-85
2022/12/19 10:59:27;;;;;;;36.53;17.45;;;;;;;0.93;97.08;102570.56;5555423;32;32675;-86
2022/12/19 11:02:42;;;;;;;40.83;16.75;;;;;;;0.84;97.72;102567.72;5558660;32;33925;-88
2022/12/19 11:05:52;;;;;;;40.40;17.35;;;;;;;0.81;99.27;102563.31;5557798;32;35140;-92
2022/12/19 11:09:35;;;;;;;39.53;18.08;;;;;;;0.82;98.63;102552.00;5558709;32;33813;-88
2022/12/19 11:12:51;;;;;;;42.62;18.10;;;;;;;0.77;99.17;102545.78;5506173;32;33096;-87
2022/12/19 11:16:22;;;;;;;38.55;17.75;;;;;;;0.71;99.77;102556.06;5561310;32;32822;-88
2022/12/19 11:19:45;;;;;;;43.65;18.23;;;;;;;0.70;99.90;102560.38;5555088;32;33674;-87
2022/12/19 11:23:13;;;;;;;41.83;17.90;;;;;;;0.67;99.76;102565.53;5569534;32;34340;-87
2022/12/19 11:26:39;;;;;;;42.08;18.17;;;;;;;0.24;100.00;102549.56;5564147;32;34314;-88
2022/12/19 11:30:06;;;;;;;44.15;18.33;;;;;;;-0.02;100.00;102545.37;5562717;32;34329;-88
2022/12/19 11:33:30;;;;;;;40.60;17.45;;;;;;;0.15;100.00;102542.34;5555953;32;33588;-88
2022/12/19 11:36:38;;;;;;;38.08;17.83;;;;;;;0.45;100.00;102537.97;5564693;32;33922;-89
2022/12/19 11:39:50;;;;;;;43.87;18.15;;;;;;;0.35;100.00;102532.47;5550861;31;33804;-87
2022/12/19 11:43:08;;;;;;;44.45;18.42;;;;;;;0.39;100.00;102534.34;5562702;32;33922;-88
2022/12/19 11:50:00;;;;;;;40.35;18.80;;;;;;;0.66;100.00;102515.00;5580376;31;33733;-88
2022/12/19 11:53:18;;;;;;;40.38;18.12;;;;;;;0.40;100.00;102509.09;5585405;31;34241;-88
2022/12/19 11:56:24;;;;;;;45.33;18.70;;;;;;;0.57;100.00;102503.44;5571092;31;34886;-88
2022/12/19 11:59:34;;;;;;;43.33;18.60;;;;;;;0.44;100.00;102500.50;5573368;31;33415;-88
2022/12/19 12:02:55;;;;;;;46.13;17.55;;;;;;;0.34;100.00;102496.78;5609770;26;34290;-91
2022/12/19 12:06:00;;;;;;;41.55;16.37;;;;;;;0.43;100.00;102497.84;5572963;26;34586;-88
2022/12/19 12:09:31;;;;;;;43.72;18.27;;;;;;;0.01;100.00;102488.88;5599106;31;34605;-88
2022/12/19 12:13:09;;;;;;;40.65;17.58;;;;;;;-0.21;100.00;102490.91;5545937;31;32356;-87
2022/12/19 12:17:06;;;;;;;44.58;17.45;;;;;;;-0.52;100.00;102487.37;5600182;31;34008;-87
2022/12/19 12:20:47;;;;;;;42.42;17.83;;;;;;;-0.56;100.00;102495.09;5582702;31;32251;-91
2022/12/19 12:24:18;;;;;;;42.35;17.90;;;;;;;-0.64;100.00;102499.19;5600986;31;32804;-87
2022/12/19 12:28:13;;;;;;;40.55;17.33;;;;;;;-0.69;100.00;102478.16;5589026;31;34065;-87
2022/12/19 12:31:39;;;;;;;42.15;16.87;;;;;;;-0.54;100.00;102474.28;5592858;31;34148;-86
2022/12/19 12:35:27;;;;;;;39.97;17.05;;;;;;;-0.48;100.00;102489.22;5617548;31;34242;-87
2022/12/19 12:39:04;;;;;;;39.53;17.48;;;;;;;-0.55;100.00;102486.41;5607330;31;34050;-88
2022/12/19 12:42:50;;;;;;;41.45;17.42;;;;;;;-0.64;100.00;102473.13;5595742;31;34282;-87
2022/12/19 12:45:53;;;;;;;42.45;18.25;;;;;;;-0.63;100.00;102476.59;5566726;31;33020;-87
2022/12/19 12:49:05;;;;;;;48.45;19.20;;;;;;;-0.49;100.00;102475.31;5589165;31;34483;-87
2022/12/19 12:52:14;;;;;;;47.62;19.60;;;;;;;-0.31;100.00;102476.66;5585551;31;33946;-87
2022/12/19 12:55:26;;;;;;;;;;;;;;;-0.35;100.00;102474.81;5603359;31;34203;-87
2022/12/19 12:58:47;;;;;;;38.50;18.00;;;;;;;-0.44;100.00;102471.09;5590796;31;34771;-87
2022/12/19 13:01:59;;;;;;;40.22;17.75;;;;;;;-0.67;100.00;102470.41;5595034;31;34160;-87
2022/12/19 13:05:39;;;;;;;40.10;18.35;;;;;;;-0.53;100.00;102463.00;5582746;31;32424;-87
2022/12/19 13:08:47;;;;;;;46.13;18.65;;;;;;;-0.65;100.00;102463.53;5544515;31;32931;-87
2022/12/19 13:15:26;;;;;;;41.70;19.45;;;;;;;-0.96;100.00;102466.03;5574775;31;32239;-87
2022/12/19 13:18:36;;;;;;;44.88;19.02;;;;;;;-1.09;100.00;102461.28;5597556;31;33973;-87
2022/12/19 13:22:07;;;;;;;47.83;19.13;;;;;;;-1.06;100.00;102460.50;5591164;31;33937;-87
2022/12/19 13:25:39;;;;;;;45.28;18.85;;;;;;;-1.34;100.00;102457.88;5610679;31;34172;-87
2022/12/19 13:28:42;;;;;;;42.85;19.10;;;;;;;-1.28;100.00;102459.78;5561913;31;32633;-87
2022/12/19 13:32:22;;;;;;;46.22;19.17;;;;;;;-1.30;100.00;102464.06;5583557;31;33439;-87
2022/12/19 13:35:28;;;;;;;44.60;19.45;;;;;;;-1.24;100.00;102453.84;5564695;31;32307;-87
2022/12/19 13:38:50;;;;;;;40.83;17.85;;;;;;;-1.16;100.00;102446.28;5577580;31;32818;-87
2022/12/19 13:46:41;;;;;;;48.33;19.45;;;;;;;-1.29;100.00;102431.97;5594428;31;33865;-87
2022/12/19 13:49:44;;;;;;;41.28;17.52;;;;;;;-1.31;100.00;102431.91;5589108;31;34597;-87
2022/12/19 13:52:50;;;;;;;42.97;17.90;;;;;;;-1.32;100.00;102431.91;5573607;31;33533;-87
2022/12/19 13:55:58;;;;;;;49.63;19.70;;;;;;;-1.43;100.00;102444.53;5575043;31;33203;-87
2022/12/19 13:59:03;;;;;;;43.78;19.08;;;;;;;-1.40;100.00;102449.88;5589038;31;34767;-87
2022/12/19 14:02:16;;;;;;;42.22;19.08;;;;;;;-1.51;100.00;102444.31;5588767;31;34639;-90
2022/12/19 14:05:38;;;;;;;43.85;18.48;;;;;;;-1.57;100.00;102436.28;5599387;31;34084;-89
2022/12/19 14:09:06;;;;;;;45.25;18.92;;;;;;;-1.58;100.00;102430.19;5591114;31;33624;-88
2022/12/19 14:16:22;;;;;;;49.38;18.73;;;;;;;-1.59;100.00;102444.03;5581567;31;34246;-89
2022/12/19 14:19:49;;;;;;;48.05;19.92;;;;;;;-1.78;100.00;102432.09;5590369;31;34034;-89
2022/12/19 14:22:58;;;;;;;46.42;19.33;;;;;;;-1.81;100.00;102443.28;5594247;31;33815;-89
2022/12/19 14:26:02;;;;;;;45.35;19.87;;;;;;;-1.76;100.00;102435.66;5598630;31;34357;-92
2022/12/19 14:29:55;;;;;;;49.78;20.88;;;;;;;-1.84;100.00;102429.28;5607103;31;33853;-88
2022/12/19 14:33:26;;;;;;;53.55;21.25;;;;;;;-1.92;100.00;102427.28;5588872;31;33859;-87
2022/12/19 14:36:53;;;;;;;50.58;21.40;;;;;;;-1.93;100.00;102437.63;5597158;31;33198;-85
2022/12/19 14:40:06;;;;;;;50.20;19.12;;;;;;;-2.14;100.00;102427.34;5600312;31;35252;-85
2022/12/19 14:47:08;;;;;;;46.13;19.42;;;;;;;-2.18;100.00;102439.38;5595851;31;33652;-90
2022/12/19 14:54:22;;;;;;;44.65;19.42;;;;;;;-2.41;100.00;102436.81;5009137;26;20084;-88
2022/12/19 14:57:48;;;;;;;49.60;21.08;;;;;;;-2.14;100.00;102441.25;5577572;31;33834;-88
2022/12/19 15:01:21;;;;;;;53.47;21.33;;;;;;;-2.35;100.00;102437.06;5678536;26;34533;-87
2022/12/19 15:04:31;;;;;;;46.13;19.58;;;;;;;-2.26;100.00;102435.59;5608758;31;35049;-89
2022/12/19 15:07:57;;;;;;;46.65;19.95;;;;;;;-2.42;100.00;102435.03;5627546;31;35460;-88
2022/12/19 15:14:46;;;;;;;50.17;20.75;;;;;;;-2.47;100.00;102434.00;5613150;31;34519;-86
2022/12/19 15:18:03;;;;;;;49.53;20.65;;;;;;;-2.50;100.00;102444.25;5616717;31;33552;-86
2022/12/19 15:21:11;;;;;;;50.53;21.05;;;;;;;-2.39;100.00;102450.75;5637811;31;34179;-88
2022/12/19 15:24:14;;;;;;;51.13;22.10;;;;;;;-2.60;100.00;102450.81;5619671;31;34720;-87
2022/12/19 15:27:16;;;;;;;58.50;24.10;;;;;;;-2.52;100.00;102452.00;5598641;31;34375;-87
2022/12/19 15:30:21;;;;;;;58.25;22.83;;;;;;;-2.61;100.00;102452.53;5605330;31;34451;-87
2022/12/19 15:33:24;;;;;;;52.55;21.75;;;;;;;-2.61;100.00;102441.25;5609683;31;34393;-87
2022/12/19 15:36:26;;;;;;;56.13;24.08;;;;;;;-2.72;100.00;102443.41;5597547;31;33868;-88
2022/12/19 15:39:29;;;;;;;59.30;23.62;;;;;;;-2.70;100.00;102449.59;5600346;31;34789;-88
2022/12/19 15:42:33;;;;;;;57.05;24.15;;;;;;;-2.72;100.00;102456.41;5580913;31;34713;-88
2022/12/19 15:45:36;;;;;;;54.45;23.17;;;;;;;-2.64;100.00;102452.41;5581550;31;32714;-88
2022/12/19 15:48:45;;;;;;;56.88;22.85;;;;;;;-2.77;100.00;102453.66;5628826;26;33513;-89
2022/12/19 15:51:49;;;;;;;59.70;23.23;;;;;;;-2.80;100.00;102444.84;5612397;26;33026;-88
2022/12/19 15:54:55;;;;;;;55.83;24.25;;;;;;;-2.80;100.00;102437.94;5576666;31;32931;-88
2022/12/19 15:58:02;;;;;;;57.03;23.75;;;;;;;-2.85;100.00;102442.94;5623560;26;33868;-89
2022/12/19 16:01:05;;;;;;;53.72;22.70;;;;;;;-2.86;100.00;102437.72;5626236;26;34517;-89
2022/12/19 16:04:11;;;;;;;53.92;23.35;;;;;;;-2.87;100.00;102439.41;5638989;26;33832;-89
2022/12/19 16:07:20;;;;;;;58.92;23.92;;;;;;;-2.75;100.00;102441.62;5596678;31;31699;-89
2022/12/19 16:10:24;;;;;;;61.72;24.75;;;;;;;-2.92;100.00;102437.47;5608815;31;33834;-88
2022/12/19 16:13:32;;;;;;;55.35;22.23;;;;;;;-2.92;100.00;102446.13;5608595;31;34402;-88
2022/12/19 16:16:35;;;;;;;57.90;22.75;;;;;;;-2.98;100.00;102438.09;5605550;31;33514;-88
2022/12/19 16:19:40;;;;;;;51.47;22.80;;;;;;;-2.98;100.00;102428.59;5592160;31;34375;-91
2022/12/19 16:22:44;;;;;;;59.03;23.98;;;;;;;-2.98;100.00;102423.41;5588877;31;35246;-91
2022/12/19 16:25:51;;;;;;;56.67;22.83;;;;;;;-2.80;100.00;102424.06;5574380;31;33909;-92
2022/12/19 16:28:54;;;;;;;56.37;23.23;;;;;;;-2.89;100.00;102419.41;5589660;31;34670;-89
2022/12/19 16:31:59;;;;;;;58.92;22.77;;;;;;;-2.88;100.00;102415.97;5588451;31;34487;-89
2022/12/19 16:35:05;;;;;;;56.25;24.25;;;;;;;-2.87;100.00;102421.22;5589991;31;33720;-89
2022/12/19 16:38:08;;;;;;;57.45;23.48;;;;;;;-2.72;100.00;102417.44;5590120;31;34212;-89
2022/12/19 16:41:17;;;;;;;61.92;22.85;;;;;;;-2.74;100.00;102413.91;5579074;31;33193;-89
2022/12/19 16:44:22;;;;;;;56.20;23.67;;;;;;;-2.64;100.00;102404.75;5576274;31;32890;-89
2022/12/19 16:47:25;;;;;;;56.35;23.30;;;;;;;-2.60;100.00;102393.66;5600321;31;33933;-89
2022/12/19 16:50:30;;;;;;;58.63;23.12;;;;;;;-2.73;100.00;102393.19;5599787;31;34830;-89
